Time;durP1;ratioP1;P1;durP2;ratioP2;P2;SDS_P1;SDS_P2;PMS_P1;PMS_P2;Temp;Humidity;BMP_temperature;BMP_pressure;BME280_temperature;BME280_humidity;BME280_pressure;Samples;Min_cycle;Max_cycle;Signal;HPM_P1;HPM_P2
2022/04/13 00:01:27;;;;;;;8.88;4.25;;;14.10;95.00;;;;;;5005905;28;20487;-70
2022/04/13 00:03:53;;;;;;;7.82;3.65;;;14.00;95.10;;;;;;4991023;28;20028;-70
2022/04/13 00:06:18;;;;;;;9.98;4.35;;;14.00;95.20;;;;;;4990068;28;20030;-70
2022/04/13 00:08:44;;;;;;;6.25;4.28;;;13.90;95.40;;;;;;4991195;28;20034;-70
2022/04/13 00:11:10;;;;;;;8.02;4.18;;;13.90;95.50;;;;;;4991107;28;20030;-70
2022/04/13 00:13:36;;;;;;;6.60;3.95;;;13.80;95.70;;;;;;4991069;28;20105;-70
2022/04/13 00:16:01;;;;;;;8.18;4.90;;;13.70;95.70;;;;;;4994354;28;20033;-70
2022/04/13 00:18:27;;;;;;;6.45;4.35;;;13.80;95.90;;;;;;5010004;28;20034;-70
2022/04/13 00:20:52;;;;;;;5.93;4.07;;;13.70;96.00;;;;;;5010736;28;20030;-70
2022/04/13 00:23:18;;;;;;;7.35;4.25;;;13.60;96.10;;;;;;5010659;28;20054;-70
2022/04/13 00:25:44;;;;;;;7.30;4.72;;;15.10;96.50;;;;;;5010676;28;20069;-70
2022/04/13 00:28:10;;;;;;;8.05;5.20;;;13.60;96.40;;;;;;5010377;28;20014;-70
2022/04/13 00:30:37;;;;;;;9.73;5.13;;;13.50;96.50;;;;;;5010267;28;20041;-70
2022/04/13 00:33:03;;;;;;;8.45;4.50;;;13.50;96.70;;;;;;5006194;28;20522;-70
2022/04/13 00:35:28;;;;;;;7.18;4.28;;;13.50;96.80;;;;;;4990707;28;20023;-72
2022/04/13 00:37:54;;;;;;;5.63;4.15;;;13.30;96.80;;;;;;4991001;28;20031;-72
2022/04/13 00:40:19;;;;;;;9.18;4.82;;;13.40;96.90;;;;;;4990363;28;20034;-72
2022/04/13 00:42:45;;;;;;;8.35;5.63;;;13.40;97.30;;;;;;4993044;28;20395;-72
2022/04/13 00:45:10;;;;;;;5.20;4.53;;;13.40;97.10;;;;;;4999918;28;20051;-72
2022/04/13 00:47:39;;;;;;;6.32;4.25;;;13.40;97.10;;;;;;4990302;28;20154;-72
2022/04/13 00:50:06;;;;;;;7.03;4.90;;;13.40;97.70;;;;;;5007198;28;20054;-70
2022/04/13 00:52:35;;;;;;;6.03;4.68;;;13.30;97.50;;;;;;5041791;28;20390;-70
2022/04/13 00:55:02;;;;;;;6.65;4.32;;;13.20;98.00;;;;;;5010033;28;20030;-70
2022/04/13 00:57:31;;;;;;;10.13;5.35;;;13.30;98.10;;;;;;5009611;28;20482;-69
2022/04/13 00:59:59;;;;;;;8.38;4.60;;;13.20;98.40;;;;;;5010179;28;20033;-70
2022/04/13 01:02:27;;;;;;;9.20;5.18;;;13.10;98.20;;;;;;4991814;28;20034;-70
2022/04/13 01:04:54;;;;;;;6.70;4.47;;;13.10;98.40;;;;;;4990658;28;20026;-70
2022/04/13 01:07:22;;;;;;;4.22;3.83;;;13.10;98.50;;;;;;4993835;28;20033;-70
2022/04/13 01:09:49;;;;;;;9.68;4.95;;;13.10;98.70;;;;;;4994568;28;20030;-70
2022/04/13 01:12:15;;;;;;;6.55;3.97;;;12.90;99.90;;;;;;4993935;28;20558;-70
2022/04/13 01:14:40;;;;;;;6.90;4.93;;;13.00;98.60;;;;;;4994215;28;20030;-70
2022/04/13 01:17:06;;;;;;;7.30;4.75;;;13.00;98.70;;;;;;5001581;28;20468;-70
2022/04/13 01:19:32;;;;;;;8.77;5.43;;;12.90;99.00;;;;;;4994035;28;20498;-70
2022/04/13 01:22:03;;;;;;;9.60;4.45;;;12.80;99.00;;;;;;4994080;28;20033;-70
2022/04/13 01:24:29;;;;;;;9.45;5.55;;;12.80;98.40;;;;;;4993947;28;20019;-70
2022/04/13 01:26:55;;;;;;;13.55;4.95;;;12.70;99.20;;;;;;4994442;28;20022;-71
2022/04/13 01:29:21;;;;;;;6.93;4.85;;;12.70;99.40;;;;;;4993845;28;20113;-70
2022/04/13 01:31:48;;;;;;;10.55;4.53;;;;;;;;;;4993736;28;20038;-70
2022/04/13 01:34:13;;;;;;;9.77;4.93;;;12.40;99.90;;;;;;4993914;28;20015;-69
2022/04/13 01:36:39;;;;;;;5.68;5.18;;;12.60;99.70;;;;;;4994954;28;20034;-70
2022/04/13 01:39:06;;;;;;;7.40;5.40;;;12.40;99.90;;;;;;4994076;28;20057;-70
2022/04/13 01:41:32;;;;;;;8.55;5.38;;;12.50;99.90;;;;;;4993731;28;20507;-70
2022/04/13 01:43:58;;;;;;;9.00;5.25;;;12.40;99.90;;;;;;4993733;28;20073;-70
2022/04/13 01:46:23;;;;;;;7.72;5.50;;;12.40;99.90;;;;;;4999463;28;20066;-70
2022/04/13 01:48:49;;;;;;;7.32;4.35;;;12.40;99.90;;;;;;4993880;28;20387;-70
2022/04/13 01:51:17;;;;;;;7.60;5.18;;;12.40;99.90;;;;;;4993634;28;20455;-70
2022/04/13 01:53:43;;;;;;;6.20;4.53;;;12.30;99.90;;;;;;5005507;28;20125;-70
2022/04/13 01:56:08;;;;;;;9.65;4.97;;;12.20;99.90;;;;;;5013085;28;20033;-70
2022/04/13 01:58:34;;;;;;;7.03;5.07;;;12.30;99.90;;;;;;5013004;28;20063;-70
2022/04/13 02:00:59;;;;;;;8.55;5.18;;;12.20;99.90;;;;;;5012539;28;20017;-70
2022/04/13 02:03:25;;;;;;;9.70;5.00;;;12.10;99.90;;;;;;5013293;28;20383;-70
2022/04/13 02:05:52;;;;;;;9.68;5.10;;;10.10;99.90;;;;;;5008366;28;20062;-70
2022/04/13 02:08:21;;;;;;;8.68;4.57;;;12.30;99.90;;;;;;4993305;28;20105;-70
2022/04/13 02:10:47;;;;;;;5.65;4.20;;;12.10;99.90;;;;;;4993430;28;20480;-71
2022/04/13 02:13:13;;;;;;;7.20;4.40;;;12.10;99.90;;;;;;4993137;28;20034;-70
2022/04/13 02:15:39;;;;;;;8.35;5.15;;;12.10;99.90;;;;;;4992636;28;20395;-70
2022/04/13 02:18:05;;;;;;;6.40;4.72;;;12.10;99.90;;;;;;4992638;28;20035;-69
2022/04/13 02:20:31;;;;;;;6.70;4.93;;;12.10;99.90;;;;;;4994664;28;20031;-70
2022/04/13 02:22:56;;;;;;;9.52;4.97;;;12.00;99.90;;;;;;5012137;28;20044;-71
2022/04/13 02:25:22;;;;;;;5.82;4.70;;;12.00;99.90;;;;;;5012599;28;20026;-70
2022/04/13 02:27:50;;;;;;;6.82;4.88;;;12.00;99.90;;;;;;5012711;28;20037;-71
2022/04/13 02:30:16;;;;;;;11.18;4.70;;;11.70;99.90;;;;;;5012153;28;20371;-70
2022/04/13 02:32:45;;;;;;;10.77;5.45;;;12.10;99.90;;;;;;5012457;28;20033;-70
2022/04/13 02:35:13;;;;;;;8.23;4.72;;;12.10;99.90;;;;;;4998576;28;20034;-69
2022/04/13 02:37:39;;;;;;;8.05;5.32;;;12.20;99.90;;;;;;4992612;28;20057;-70
2022/04/13 02:40:09;;;;;;;12.20;5.70;;;12.20;99.90;;;;;;4992631;28;20070;-70
2022/04/13 02:42:35;;;;;;;8.77;4.85;;;12.30;99.90;;;;;;4992167;28;20488;-70
2022/04/13 02:45:03;;;;;;;8.40;5.30;;;11.80;99.90;;;;;;4992367;28;20105;-70
2022/04/13 02:47:29;;;;;;;7.72;5.18;;;12.40;99.90;;;;;;4992527;28;20037;-70
2022/04/13 02:49:55;;;;;;;6.47;5.10;;;12.30;99.90;;;;;;4992542;28;20064;-70
2022/04/13 02:52:21;;;;;;;7.40;5.38;;;12.30;99.90;;;;;;5003910;28;20049;-70
2022/04/13 02:54:47;;;;;;;6.85;5.97;;;12.30;99.90;;;;;;5012203;28;20456;-70
2022/04/13 02:57:12;;;;;;;9.00;6.97;;;12.30;99.90;;;;;;5011484;28;20099;-70
2022/04/13 02:59:37;;;;;;;10.25;7.30;;;12.20;99.90;;;;;;5011876;28;20083;-70
2022/04/13 03:02:04;;;;;;;9.88;6.05;;;12.40;99.90;;;;;;5011793;28;20061;-70
2022/04/13 03:04:32;;;;;;;8.68;6.43;;;12.30;99.90;;;;;;5003744;28;20049;-69
2022/04/13 03:06:58;;;;;;;8.65;6.07;;;12.30;99.90;;;;;;4992103;28;20546;-70
2022/04/13 03:09:24;;;;;;;7.43;5.45;;;12.20;99.90;;;;;;4992259;28;20054;-72
2022/04/13 03:11:49;;;;;;;8.38;5.95;;;12.60;99.90;;;;;;4991843;28;20078;-72
2022/04/13 03:14:15;;;;;;;10.13;6.65;;;12.70;99.90;;;;;;4992055;28;21007;-73
2022/04/13 03:16:40;;;;;;;11.45;6.57;;;12.40;99.90;;;;;;4991298;28;20038;-72
2022/04/13 03:19:06;;;;;;;11.00;5.80;;;12.50;99.90;;;;;;5009458;28;20033;-72
2022/04/13 03:21:32;;;;;;;8.63;6.32;;;12.20;99.90;;;;;;5010836;28;20026;-70
2022/04/13 03:23:57;;;;;;;12.13;6.53;;;12.30;99.90;;;;;;5011062;28;20410;-70
2022/04/13 03:26:23;;;;;;;11.27;6.65;;;12.20;99.90;;;;;;5011058;28;20030;-70
2022/04/13 03:28:49;;;;;;;9.15;6.45;;;12.30;99.90;;;;;;5010756;28;20026;-70
2022/04/13 03:31:16;;;;;;;12.88;6.90;;;;;;;;;;5011174;28;20060;-70
2022/04/13 03:33:42;;;;;;;11.45;6.03;;;12.20;99.90;;;;;;5006460;28;20033;-70
2022/04/13 03:36:08;;;;;;;8.57;5.88;;;12.10;99.90;;;;;;5011136;28;20029;-69
2022/04/13 03:38:34;;;;;;;9.15;6.05;;;12.10;99.90;;;;;;5009992;28;20480;-70
2022/04/13 03:41:02;;;;;;;6.65;5.68;;;12.10;99.90;;;;;;5010529;28;20022;-70
2022/04/13 03:43:28;;;;;;;9.80;5.95;;;12.00;99.90;;;;;;5010955;28;20030;-71
2022/04/13 03:45:53;;;;;;;9.18;6.30;;;12.00;99.90;;;;;;5010984;28;20057;-70
2022/04/13 03:48:19;;;;;;;8.55;6.97;;;11.70;99.90;;;;;;5010587;28;20040;-70
2022/04/13 03:50:44;;;;;;;7.93;5.97;;;12.00;99.90;;;;;;5011177;28;20029;-70
2022/04/13 03:53:10;;;;;;;9.55;5.90;;;12.80;99.90;;;;;;5001267;28;20117;-72
2022/04/13 03:55:35;;;;;;;11.27;6.55;;;11.90;99.90;;;;;;4989535;28;20033;-70
2022/04/13 03:58:01;;;;;;;11.77;7.20;;;11.40;99.90;;;;;;4991164;28;20113;-70
2022/04/13 04:00:26;;;;;;;8.65;7.03;;;11.60;99.90;;;;;;4991129;28;20503;-71
2022/04/13 04:02:52;;;;;;;11.50;7.65;;;11.60;99.90;;;;;;4989978;28;20034;-70
2022/04/13 04:05:17;;;;;;;10.63;7.40;;;11.50;99.90;;;;;;4991028;28;20073;-70
2022/04/13 04:07:43;;;;;;;9.30;6.93;;;11.50;99.90;;;;;;4991078;28;20029;-70
2022/04/13 04:10:10;;;;;;;10.70;6.60;;;11.40;99.90;;;;;;4990663;28;20026;-70
2022/04/13 04:12:40;;;;;;;12.05;7.28;;;11.40;99.90;;;;;;4990861;28;20100;-70
2022/04/13 04:15:09;;;;;;;13.32;7.13;;;11.30;99.90;;;;;;4989699;28;20062;-70
2022/04/13 04:17:35;;;;;;;9.05;7.85;;;11.20;99.90;;;;;;4999926;28;20083;-70
2022/04/13 04:20:00;;;;;;;9.90;7.13;;;11.00;99.90;;;;;;5010500;28;20109;-70
2022/04/13 04:22:26;;;;;;;9.35;7.07;;;11.10;99.90;;;;;;5010643;28;20044;-70
2022/04/13 04:24:53;;;;;;;8.18;7.43;;;11.00;99.90;;;;;;5010493;28;20104;-70
2022/04/13 04:27:19;;;;;;;11.82;7.53;;;11.10;99.90;;;;;;5010114;28;20033;-70
2022/04/13 04:29:44;;;;;;;9.43;7.30;;;11.00;99.90;;;;;;5009467;28;20084;-70
2022/04/13 04:32:10;;;;;;;10.13;7.55;;;10.90;99.90;;;;;;5010522;28;20498;-70
2022/04/13 04:34:35;;;;;;;14.00;8.07;;;10.70;99.90;;;;;;5010565;28;20036;-70
2022/04/13 04:37:01;;;;;;;11.95;7.53;;;10.90;99.90;;;;;;5010284;28;20033;-70
2022/04/13 04:39:26;;;;;;;11.48;7.50;;;10.90;99.90;;;;;;5002723;28;20439;-70
2022/04/13 04:41:52;;;;;;;10.05;7.75;;;10.70;99.90;;;;;;4991239;28;20054;-70
2022/04/13 04:44:18;;;;;;;10.80;7.32;;;10.70;99.90;;;;;;4990635;28;20105;-69
2022/04/13 04:46:43;;;;;;;11.10;8.35;;;10.70;99.90;;;;;;4990820;28;20466;-70
2022/04/13 04:49:09;;;;;;;13.80;9.48;;;10.70;99.90;;;;;;4990631;28;20046;-70
2022/04/13 04:51:34;;;;;;;9.00;8.05;;;10.60;99.90;;;;;;4990440;28;20030;-70
2022/04/13 04:54:01;;;;;;;9.95;7.72;;;10.80;99.90;;;;;;4990627;28;20101;-70
2022/04/13 04:56:28;;;;;;;9.85;7.85;;;10.60;99.90;;;;;;5009761;28;20108;-70
2022/04/13 04:58:54;;;;;;;10.30;8.30;;;10.70;99.90;;;;;;5010097;28;20030;-69
2022/04/13 05:01:19;;;;;;;15.93;9.63;;;10.60;99.90;;;;;;5009382;28;20164;-69
2022/04/13 05:03:48;;;;;;;21.88;9.52;;;10.60;99.90;;;;;;5010053;28;20049;-71
2022/04/13 05:06:21;;;;;;;12.52;9.63;;;10.60;99.90;;;;;;5009971;28;20037;-70
2022/04/13 05:08:47;;;;;;;13.75;8.73;;;10.50;99.90;;;;;;5007997;28;20030;-69
2022/04/13 05:11:12;;;;;;;11.88;8.80;;;10.60;99.90;;;;;;5007006;28;20123;-70
2022/04/13 05:13:38;;;;;;;11.52;8.15;;;10.50;99.90;;;;;;5009627;28;20500;-70
2022/04/13 05:16:05;;;;;;;12.27;9.05;;;10.60;99.90;;;;;;5008788;28;20471;-70
2022/04/13 05:18:30;;;;;;;14.77;8.90;;;10.60;99.90;;;;;;5008579;28;20526;-71
2022/04/13 05:20:56;;;;;;;15.27;8.60;;;10.50;99.90;;;;;;5009718;28;20022;-71
2022/04/13 05:23:21;;;;;;;11.60;8.45;;;10.60;99.90;;;;;;5008198;28;20387;-71
2022/04/13 05:25:47;;;;;;;13.37;10.20;;;10.60;99.90;;;;;;5009264;28;20033;-70
2022/04/13 05:28:12;;;;;;;11.65;8.60;;;10.50;99.90;;;;;;5005130;28;20418;-70
2022/04/13 05:30:38;;;;;;;14.27;10.23;;;10.70;99.90;;;;;;4990117;28;20034;-71
2022/04/13 05:33:05;;;;;;;12.77;8.52;;;10.50;99.90;;;;;;4989865;28;20228;-71
2022/04/13 05:35:31;;;;;;;12.63;9.52;;;11.00;99.90;;;;;;4988995;28;20030;-71
2022/04/13 05:37:57;;;;;;;13.80;9.45;;;10.90;99.90;;;;;;4989684;28;20046;-71
2022/04/13 05:40:23;;;;;;;10.20;8.52;;;11.00;99.90;;;;;;4990189;28;20427;-71
2022/04/13 05:42:50;;;;;;;17.90;9.05;;;11.10;99.90;;;;;;4990187;28;20472;-70
2022/04/13 05:45:17;;;;;;;14.57;9.93;;;11.20;99.90;;;;;;4995632;28;20068;-70
2022/04/13 05:47:44;;;;;;;12.25;8.85;;;11.90;99.90;;;;;;5004956;28;20126;-70
2022/04/13 05:50:11;;;;;;;15.20;10.70;;;11.50;99.90;;;;;;5001789;28;20038;-70
2022/04/13 05:52:37;;;;;;;13.80;10.07;;;11.50;99.90;;;;;;5004344;28;20046;-70
2022/04/13 05:55:03;;;;;;;18.63;9.77;;;11.60;99.90;;;;;;5012755;28;20022;-70
2022/04/13 05:57:29;;;;;;;19.27;10.68;;;11.60;99.90;;;;;;5012679;28;20045;-70
2022/04/13 05:59:54;;;;;;;16.58;10.98;;;11.60;99.90;;;;;;5012843;28;20030;-70
2022/04/13 06:02:20;;;;;;;16.38;12.02;;;11.80;99.90;;;;;;5012706;28;20030;-70
2022/04/13 06:04:46;;;;;;;16.08;11.85;;;11.60;99.90;;;;;;5012983;28;20448;-69
2022/04/13 06:07:11;;;;;;;14.65;13.15;;;12.80;99.90;;;;;;5015730;28;20109;-70
2022/04/13 06:09:37;;;;;;;16.02;12.38;;;11.70;99.90;;;;;;5012548;28;20113;-69
2022/04/13 06:12:03;;;;;;;18.33;13.23;;;11.80;99.90;;;;;;5012297;28;20371;-71
2022/04/13 06:14:28;;;;;;;15.65;13.65;;;12.00;99.90;;;;;;5012721;28;20095;-70
2022/04/13 06:16:54;;;;;;;19.90;14.13;;;12.30;99.90;;;;;;5012650;28;20052;-70
2022/04/13 06:19:19;;;;;;;17.92;14.98;;;12.20;99.90;;;;;;5012376;28;20026;-70
2022/04/13 06:21:45;;;;;;;21.50;15.35;;;12.80;99.90;;;;;;5012269;28;20045;-70
2022/04/13 06:24:11;;;;;;;18.45;15.18;;;12.20;99.90;;;;;;5012441;28;20026;-70
2022/04/13 06:26:36;;;;;;;19.17;15.98;;;12.30;99.90;;;;;;5012357;28;20051;-70
2022/04/13 06:29:02;;;;;;;19.35;16.33;;;13.30;99.90;;;;;;5012109;28;20108;-70
2022/04/13 06:31:28;;;;;;;23.05;15.30;;;12.80;99.90;;;;;;4996553;28;20534;-69
2022/04/13 06:33:54;;;;;;;19.98;14.80;;;12.70;99.90;;;;;;5011481;28;20442;-70
2022/04/13 06:36:19;;;;;;;22.02;15.88;;;13.40;99.90;;;;;;5011693;28;20061;-70
2022/04/13 06:38:45;;;;;;;19.48;15.52;;;12.90;99.90;;;;;;5012310;28;20467;-69
2022/04/13 06:41:11;;;;;;;18.83;16.77;;;13.10;99.90;;;;;;5010022;28;20065;-69
2022/04/13 06:43:37;;;;;;;19.33;17.27;;;;;;;;;;5000970;28;20125;-70
2022/04/13 06:46:03;;;;;;;23.65;17.55;;;13.30;99.90;;;;;;5011372;28;20132;-69
2022/04/13 06:48:28;;;;;;;20.65;18.20;;;13.30;99.90;;;;;;5011451;28;20118;-69
2022/04/13 06:50:53;;;;;;;21.65;17.38;;;13.20;99.90;;;;;;5010574;28;20018;-70
2022/04/13 06:53:19;;;;;;;27.88;19.33;;;13.40;99.90;;;;;;5010044;28;20128;-69
2022/04/13 06:55:47;;;;;;;23.95;18.65;;;13.40;99.90;;;;;;5011149;28;20486;-69
2022/04/13 06:58:16;;;;;;;23.42;20.35;;;13.40;99.90;;;;;;5005161;28;20107;-69
2022/04/13 07:00:42;;;;;;;23.73;21.10;;;13.40;99.90;;;;;;5007864;28;20034;-68
2022/04/13 07:03:07;;;;;;;33.03;22.55;;;13.50;99.90;;;;;;5010900;28;20030;-68
2022/04/13 07:05:33;;;;;;;24.98;21.48;;;13.40;99.90;;;;;;4997959;28;20018;-68
2022/04/13 07:08:00;;;;;;;25.10;21.13;;;13.50;99.90;;;;;;5011127;28;20124;-67
2022/04/13 07:10:27;;;;;;;28.70;23.80;;;13.20;99.90;;;;;;5009765;28;20408;-69
2022/04/13 07:12:53;;;;;;;27.23;22.50;;;13.70;99.90;;;;;;5010436;28;20038;-69
2022/04/13 07:15:19;;;;;;;30.17;22.70;;;13.60;99.90;;;;;;5009514;28;20105;-69
2022/04/13 07:17:45;;;;;;;31.02;23.58;;;13.60;99.90;;;;;;5011386;28;20121;-69
2022/04/13 07:20:11;;;;;;;26.85;23.83;;;13.60;99.90;;;;;;5010866;28;20034;-69
2022/04/13 07:22:51;;;;;;;27.73;22.83;;;13.70;99.90;;;;;;5011230;28;20057;-69
2022/04/13 07:25:17;;;;;;;24.90;22.30;;;14.00;99.90;;;;;;5010515;28;20136;-69
2022/04/13 07:27:44;;;;;;;30.35;23.98;;;14.10;99.90;;;;;;5011072;28;20022;-69
2022/04/13 07:30:10;;;;;;;36.10;27.50;;;14.20;99.90;;;;;;5010952;28;20030;-69
2022/04/13 07:32:36;;;;;;;34.83;25.50;;;14.40;99.90;;;;;;5009389;28;20046;-70
2022/04/13 07:35:03;;;;;;;32.40;27.88;;;14.40;99.90;;;;;;5010744;28;20087;-70
2022/04/13 07:37:29;;;;;;;32.80;25.27;;;14.30;99.90;;;;;;5009384;28;20033;-70
2022/04/13 07:39:55;;;;;;;30.55;25.90;;;14.60;99.90;;;;;;5011105;28;20042;-70
2022/04/13 07:42:21;;;;;;;38.20;28.70;;;14.70;99.90;;;;;;5010606;28;20398;-71
2022/04/13 07:44:47;;;;;;;36.40;29.92;;;14.70;99.90;;;;;;5010610;28;20030;-71
2022/04/13 07:47:16;;;;;;;39.80;28.40;;;14.90;99.90;;;;;;5008876;28;20132;-70
2022/04/13 07:49:43;;;;;;;36.10;28.35;;;14.70;99.90;;;;;;5009716;28;20018;-70
2022/04/13 07:52:09;;;;;;;31.92;28.30;;;14.60;99.90;;;;;;5025460;28;20444;-71
2022/04/13 07:54:35;;;;;;;33.33;25.98;;;14.60;99.90;;;;;;5010173;28;20038;-70
2022/04/13 07:57:01;;;;;;;32.70;27.05;;;14.60;99.90;;;;;;5010332;28;20045;-71
2022/04/13 07:59:27;;;;;;;40.45;25.92;;;14.70;99.90;;;;;;5010234;28;20049;-71
2022/04/13 08:01:53;;;;;;;37.00;27.88;;;14.70;99.90;;;;;;5009641;28;20018;-71
2022/04/13 08:04:19;;;;;;;33.55;26.42;;;14.80;99.90;;;;;;5009525;28;20198;-70
2022/04/13 08:06:45;;;;;;;31.92;26.15;;;14.90;99.90;;;;;;5009204;28;20033;-70
2022/04/13 08:09:10;;;;;;;34.60;28.60;;;15.00;99.90;;;;;;5010373;28;20052;-70
2022/04/13 08:11:36;;;;;;;33.50;25.35;;;15.20;99.90;;;;;;5010475;28;20022;-70
2022/04/13 08:14:01;;;;;;;30.73;24.80;;;15.30;99.90;;;;;;5009799;28;20072;-70
2022/04/13 08:16:27;;;;;;;29.42;23.88;;;15.40;99.90;;;;;;4991912;28;20491;-70
2022/04/13 08:18:52;;;;;;;28.60;24.00;;;15.60;99.90;;;;;;5005904;28;20037;-70
2022/04/13 08:21:18;;;;;;;28.08;22.70;;;15.70;99.90;;;;;;5009615;28;20026;-71
2022/04/13 08:23:44;;;;;;;26.33;21.33;;;15.90;99.90;;;;;;5010220;28;20033;-70
2022/04/13 08:26:09;;;;;;;23.00;18.85;;;16.00;99.90;;;;;;5009080;28;20033;-71
2022/04/13 08:28:35;;;;;;;22.25;18.27;;;16.00;99.90;;;;;;5009885;28;20046;-70
2022/04/13 08:31:04;;;;;;;27.38;16.48;;;16.00;99.90;;;;;;5008832;28;20026;-71
2022/04/13 08:33:32;;;;;;;20.13;14.63;;;15.80;99.90;;;;;;5008768;28;20052;-71
2022/04/13 08:35:57;;;;;;;18.55;14.18;;;15.80;99.90;;;;;;5009611;28;20022;-70
2022/04/13 08:38:23;;;;;;;18.13;13.27;;;15.70;99.90;;;;;;5009909;28;20020;-71
2022/04/13 08:40:55;;;;;;;17.08;13.07;;;15.70;99.90;;;;;;5010398;28;20747;-71
2022/04/13 08:43:43;;;;;;;17.10;12.85;;;15.70;99.90;;;;;;5007732;28;20032;-71
2022/04/13 08:46:13;;;;;;;14.77;11.07;;;15.90;99.90;;;;;;5009078;28;20049;-71
2022/04/13 08:48:42;;;;;;;13.07;10.32;;;15.80;99.90;;;;;;5009900;28;20029;-71
2022/04/13 08:51:13;;;;;;;16.25;10.35;;;16.10;99.90;;;;;;5010109;28;20095;-71
2022/04/13 08:53:43;;;;;;;15.18;10.60;;;16.30;99.90;;;;;;5009579;28;20514;-70
2022/04/13 08:56:14;;;;;;;12.40;9.32;;;16.90;99.90;;;;;;5006522;28;20084;-70
2022/04/13 08:58:49;;;;;;;14.00;10.13;;;16.40;99.90;;;;;;5009089;28;20491;-70
2022/04/13 09:01:45;;;;;;;10.52;9.38;;;16.40;99.90;;;;;;5009229;28;20479;-70
2022/04/13 09:04:15;;;;;;;11.90;8.25;;;16.50;99.90;;;;;;5008267;28;20026;-70
2022/04/13 09:06:42;;;;;;;11.63;7.38;;;16.40;99.90;;;;;;5008420;28;20507;-69
2022/04/13 09:09:35;;;;;;;8.68;6.50;;;16.60;99.90;;;;;;5007718;28;20030;-69
2022/04/13 09:12:02;;;;;;;10.70;8.32;;;16.80;99.90;;;;;;5002614;28;20400;-69
2022/04/13 09:14:29;;;;;;;7.88;6.68;;;16.80;99.60;;;;;;5007784;28;20555;-69
2022/04/13 09:16:59;;;;;;;12.23;8.20;;;17.00;99.50;;;;;;5009837;28;20033;-69
2022/04/13 09:19:25;;;;;;;15.30;11.10;;;17.20;99.00;;;;;;5009045;28;20041;-70
2022/04/13 09:21:52;;;;;;;18.85;12.07;;;17.30;98.70;;;;;;5009807;28;20072;-70
2022/04/13 09:24:19;;;;;;;15.77;10.77;;;17.30;98.90;;;;;;5009680;28;20076;-70
2022/04/13 09:26:45;;;;;;;12.57;9.50;;;17.30;98.80;;;;;;5010940;28;20030;-70
2022/04/13 09:29:11;;;;;;;12.90;9.55;;;17.50;98.80;;;;;;5013042;28;20026;-70
2022/04/13 09:31:36;;;;;;;11.82;8.73;;;17.70;98.40;;;;;;5013428;28;20084;-70
2022/04/13 09:34:02;;;;;;;10.18;6.97;;;17.90;98.00;;;;;;5012440;28;20092;-70
2022/04/13 09:36:28;;;;;;;9.77;7.13;;;18.10;97.40;;;;;;5012970;28;20088;-70
2022/04/13 09:38:56;;;;;;;11.38;7.63;;;18.20;97.10;;;;;;5012614;28;20088;-70
2022/04/13 09:41:32;;;;;;;10.68;7.75;;;18.40;96.90;;;;;;5011554;28;20026;-71
2022/04/13 09:43:58;;;;;;;10.38;7.22;;;18.70;96.80;;;;;;5012554;28;20030;-70
2022/04/13 09:46:30;;;;;;;8.98;7.55;;;18.80;96.10;;;;;;5012791;28;20052;-70
2022/04/13 09:49:15;;;;;;;11.40;8.43;;;19.20;96.30;;;;;;5012814;28;20647;-70
2022/04/13 09:51:49;;;;;;;7.50;5.93;;;19.30;95.70;;;;;;5009877;28;20503;-71
2022/04/13 09:54:16;;;;;;;11.63;8.63;;;19.20;94.70;;;;;;5012673;28;20030;-70
2022/04/13 09:56:49;;;;;;;10.23;8.30;;;19.20;95.00;;;;;;5011848;28;20033;-70
2022/04/13 09:59:28;;;;;;;10.35;6.95;;;19.00;95.20;;;;;;5009008;28;20033;-69
2022/04/13 10:01:55;;;;;;;10.70;7.05;;;19.00;94.80;;;;;;5012556;28;20390;-69
2022/04/13 10:04:31;;;;;;;11.77;7.70;;;18.80;95.40;;;;;;4999321;28;20022;-70
2022/04/13 10:07:18;;;;;;;7.78;6.35;;;18.80;96.00;;;;;;5012772;28;20044;-70
2022/04/13 10:09:43;;;;;;;9.25;5.80;;;18.50;96.00;;;;;;5012332;28;20026;-70
2022/04/13 10:12:09;;;;;;;7.43;4.75;;;18.70;95.70;;;;;;5011703;28;20042;-70
2022/04/13 10:14:35;;;;;;;7.20;4.80;;;18.40;95.70;;;;;;4999814;28;20038;-70
2022/04/13 10:17:32;;;;;;;9.15;6.40;;;18.30;96.00;;;;;;4998713;28;20027;-70
2022/04/13 10:19:58;;;;;;;7.88;6.68;;;18.10;96.60;;;;;;4992366;28;20062;-69
2022/04/13 10:22:24;;;;;;;8.30;7.28;;;17.80;96.30;;;;;;5026241;28;20494;-69
2022/04/13 10:24:49;;;;;;;9.48;8.48;;;17.80;96.60;;;;;;5012324;28;20113;-69
2022/04/13 10:27:17;;;;;;;9.68;7.60;;;17.70;96.70;;;;;;5009954;28;20071;-69
2022/04/13 10:29:48;;;;;;;8.80;7.00;;;17.70;97.10;;;;;;5012502;28;20096;-70
2022/04/13 10:32:19;;;;;;;7.53;6.18;;;17.70;97.40;;;;;;5003425;28;20042;-70
2022/04/13 10:34:52;;;;;;;7.68;6.90;;;18.60;97.60;;;;;;5005386;28;20434;-70
2022/04/13 10:37:21;;;;;;;8.38;6.32;;;17.90;96.40;;;;;;5011380;28;20438;-70
2022/04/13 10:39:48;;;;;;;8.20;5.88;;;17.70;96.90;;;;;;5012193;28;20038;-70
2022/04/13 10:42:16;;;;;;;8.63;5.45;;;17.70;96.70;;;;;;5011823;28;20029;-70
2022/04/13 10:44:46;;;;;;;8.45;5.60;;;17.90;97.00;;;;;;5011551;28;20026;-70
2022/04/13 10:47:16;;;;;;;6.22;4.78;;;17.40;96.90;;;;;;5005176;28;20045;-70
2022/04/13 10:49:50;;;;;;;9.63;4.43;;;17.40;97.10;;;;;;4996006;28;20039;-70
2022/04/13 10:52:37;;;;;;;7.35;4.72;;;17.40;96.40;;;;;;5000488;28;20091;-70
2022/04/13 10:55:10;;;;;;;10.23;4.38;;;17.40;96.50;;;;;;5019086;28;20033;-70
2022/04/13 10:57:52;;;;;;;7.25;6.22;;;17.40;97.30;;;;;;5009903;28;20029;-70
2022/04/13 11:00:20;;;;;;;9.18;6.07;;;17.40;97.10;;;;;;5008517;28;20032;-71
2022/04/13 11:02:54;;;;;;;5.75;4.72;;;17.30;97.20;;;;;;5012082;28;20025;-70
2022/04/13 11:05:25;;;;;;;;;;;17.40;96.50;;;;;;5011961;28;20112;-71
2022/04/13 11:08:12;;;;;;;8.05;5.55;;;17.50;96.90;;;;;;5007682;28;19936;-71
2022/04/13 11:10:38;;;;;;;8.88;6.68;;;17.50;96.70;;;;;;5010442;28;20499;-69
2022/04/13 11:13:04;;;;;;;8.93;5.72;;;18.30;97.60;;;;;;5010621;28;20399;-70
2022/04/13 11:15:50;;;;;;;9.18;6.13;;;17.60;97.20;;;;;;5008583;28;20030;-71
2022/04/13 11:18:20;;;;;;;8.63;7.03;;;17.70;97.60;;;;;;5011268;28;20276;-71
2022/04/13 11:21:01;;;;;;;7.13;6.05;;;17.80;97.30;;;;;;5011950;28;20380;-70
2022/04/13 11:23:46;;;;;;;8.70;6.10;;;18.00;97.20;;;;;;5007134;28;20034;-71
2022/04/13 11:26:12;;;;;;;7.38;5.65;;;18.00;97.10;;;;;;5001563;28;20053;-70
2022/04/13 11:28:38;;;;;;;8.63;5.78;;;18.00;96.50;;;;;;5019281;28;20889;-70
2022/04/13 11:31:13;;;;;;;7.28;5.45;;;17.90;96.30;;;;;;5031041;28;20044;-70
2022/04/13 11:33:50;;;;;;;6.90;6.22;;;18.00;96.80;;;;;;5031037;28;20421;-71
2022/04/13 11:36:17;;;;;;;7.75;5.95;;;18.00;95.60;;;;;;5030382;28;20029;-69
2022/04/13 11:38:50;;;;;;;11.73;6.50;;;17.90;96.30;;;;;;5008151;28;20041;-69
2022/04/13 11:41:16;;;;;;;11.65;7.13;;;17.80;96.60;;;;;;5005879;28;20380;-69
2022/04/13 11:43:42;;;;;;;8.98;5.72;;;17.60;96.40;;;;;;5009648;28;20037;-69
2022/04/13 11:46:11;;;;;;;8.48;6.38;;;;;;;;;;5005270;28;20045;-68
2022/04/13 11:48:37;;;;;;;11.35;6.93;;;17.60;95.60;;;;;;5024204;28;20542;-69
2022/04/13 11:51:29;;;;;;;10.48;6.85;;;17.50;96.70;;;;;;5029217;28;20108;-69
2022/04/13 11:54:06;;;;;;;8.35;6.32;;;17.50;96.50;;;;;;5030470;28;20045;-69
2022/04/13 11:56:48;;;;;;;12.48;5.60;;;17.30;97.10;;;;;;5025546;28;20030;-69
2022/04/13 11:59:43;;;;;;;9.35;6.75;;;17.50;96.50;;;;;;5000288;28;20167;-69
2022/04/13 12:02:10;;;;;;;10.02;6.07;;;17.50;96.50;;;;;;5010623;28;20072;-70
2022/04/13 12:04:36;;;;;;;9.85;6.70;;;17.30;96.90;;;;;;5010281;28;20137;-69
2022/04/13 12:07:01;;;;;;;10.07;7.25;;;17.30;97.20;;;;;;5006809;28;20041;-69
2022/04/13 12:09:28;;;;;;;9.98;7.55;;;17.20;97.40;;;;;;5009999;28;20029;-70
2022/04/13 12:11:55;;;;;;;11.55;7.85;;;17.10;97.70;;;;;;5010237;28;20037;-70
2022/04/13 12:14:28;;;;;;;11.10;7.05;;;17.10;97.70;;;;;;5010558;28;20108;-70
2022/04/13 12:16:59;;;;;;;12.27;7.45;;;17.10;98.30;;;;;;5010704;28;20022;-70
2022/04/13 12:19:25;;;;;;;12.75;7.43;;;17.10;98.40;;;;;;5010582;28;20030;-70
2022/04/13 12:21:51;;;;;;;14.57;7.50;;;17.10;98.10;;;;;;5010720;28;20104;-69
2022/04/13 12:24:16;;;;;;;10.05;6.65;;;17.00;98.10;;;;;;5009903;28;20053;-69
2022/04/13 12:26:44;;;;;;;11.10;5.63;;;17.20;98.20;;;;;;5009282;28;20088;-69
2022/04/13 12:29:22;;;;;;;9.35;5.53;;;17.00;98.30;;;;;;4990454;28;20022;-69
2022/04/13 12:31:51;;;;;;;7.20;5.85;;;17.10;98.50;;;;;;4990829;28;20062;-69
2022/04/13 12:34:17;;;;;;;12.90;5.68;;;17.10;98.20;;;;;;4990707;28;20038;-69
2022/04/13 12:36:55;;;;;;;12.02;5.50;;;17.00;98.00;;;;;;4990357;28;20022;-69
2022/04/13 12:39:35;;;;;;;9.98;6.60;;;17.00;98.20;;;;;;5009958;28;20076;-68
2022/04/13 12:42:02;;;;;;;8.07;4.57;;;17.10;98.30;;;;;;5008715;28;20085;-69
2022/04/13 12:44:31;;;;;;;7.15;5.05;;;17.10;97.90;;;;;;5009981;28;20030;-69